KFAM/FAM METAR and TAF weather

Enter ICAO airport designator
Station Type Date Time Source
KFAM METAR 2018/12/17 01:56 UTC NOAA

KFAM 170156Z AUTO 00000KT 10SM CLR 07/M02 A3023 RMK AO2 SLP242 T00721022


Station Type Date Time Source
KFAM Decoded METAR 2018/12/17 01:56 UTC NOAA

Farmington Airport, MO, United States (KFAM) 37-46N 090-26W
Dec 16, 2018 - 08:56 PM EST / 2018.12.17 0156 UTC
Wind: Calm:0
Visibility: 10 mile(s):0
Sky conditions: clear
Temperature: 45.0 F (7.2 C)
Dew Point: 28.0 F (-2.2 C)
Relative Humidity: 51%
Pressure (altimeter): 30.23 in. Hg (1023 hPa)
ob: KFAM 170156Z AUTO 00000KT 10SM CLR 07/M02 A3023 RMK AO2 SLP242 T00721022
cycle: 2

Station Type Date Time Source
KFAM TAF UTC NOAA

Error!


Example: see airport list